Aérodrome :
LOGIN :

S'inscrire | Disclaimer

   EN    FR    IT 

 










Légende :    VFR   VFR Marginal   IFR   IFR Intensif   IFR Très Intensif
Visi : 
Plafond : 
>= 8 km
>= 3000ft
5 à 8 km
1000 à 3000 ft
1500m à 5 km
500 à 1000 ft
800 à 1500m
200 à 500 ft
< 800m
< 200 ft
Symboles :   Orages  Brouillard  Fortes neiges  Fortes précipitations  Vent > 20 kt
SIGMETs :   Divers  Orages  Givrage  Turbulence  Onde Orograph.  Cendres Volcan.






- Altitude de l'aérodrome : 17 ft
- Code IATA : GRQ


EHGG - Groningen Eelde

DERNIER METAR :
  • 141855Z AUTO 09008KT 070V130 9999 NSC 14/12 Q1008 NOSIG

METARs EXPIRÉS :
  • 141825Z AUTO 09008KT 060V120 9999 NSC 14/12 Q1008 NOSIG
  • 141755Z AUTO 09009KT 050V120 9999 NSC 14/12 Q1008 NOSIG
  • 141725Z AUTO 08010KT 050V120 9999 NSC 14/12 Q1008 NOSIG
  • 141655Z AUTO 08010KT 9999 NSC 14/12 Q1008 NOSIG
  • 141625Z AUTO 08011KT 9999 NSC 14/12 Q1009 REDZ NOSIG

TAF TAF EHGG
Valide du 14 à 18h jusqu'au 16 à 00h UTC


141723Z 1418/1524 09010KT CAVOK
BECMG 1419/1422 12007KT 4000 BR MIFG
PROB30
TEMPO 1502/1507 2000
BECMG 1506/1509 9999 NSW BKN020
TEMPO 1510/1524 6000 RA SHRA BKN012 SCT060CB
PROB40
TEMPO 1518/1524 4000 BKN009



MET'MAP, la Météo Aéronautique d'un coup d'oeil ! - Copyright ORBIFLY Décembre 2007 - Disclaimer

ORBIFLY MET'MAP TEAM :

Programmation & Développement : Alexandra Zaïnal
Conception & Développement : Baudouin d'Aumeries
Co-Programmation & Développement : Marc-Olivier Méhu
Soutien technique & logistique : Manuel Goepfert

Contact : metmap@orbifly.com




SOURCES & CREDITS :

   NOAA